Sunsites, Arizona
Current Conditions -  °F | °C
As of 3:56 PM on Thursday 20 Nov 2014 (Local Time) from KDUG Reporting Station
Clear Clear  
Wind Chill: 70°   Ceiling: Unl
Heat Index: 70°   Visibility: 10mi
Dew Point: 10°   Wind: 13mph
Humidity: 10%   Direction: 220°SW
Pressure: 30.02"   Gusts: NA
Location:  31.9924°N, 109.696°W
Report Text: KDUG 202256Z AUTO 22011KT 10SM CLR 21/M12 A3002 RMK AO2 SLP134 T02111122
Loading
Personal Weather Stations






























Interactive Weather Map New forecast layout! Learn more

10-Day Weather Forecast

Advertisements
Track Severe Weather on mobile